Time;durP1;ratioP1;P1;durP2;ratioP2;P2;SDS_P1;SDS_P2;PMS_P1;PMS_P2;Temp;Humidity;BMP_temperature;BMP_pressure;BME280_temperature;BME280_humidity;BME280_pressure;Samples;Min_cycle;Max_cycle;Signal;HPM_P1;HPM_P2
2021/11/25 00:02:04;;;;;;;10.90;6.60;;;6.90;91.30;;;;;;5068738;28;20087;-58
2021/11/25 00:04:31;;;;;;;13.80;7.50;;;6.90;91.30;;;;;;5068364;28;20044;-57
2021/11/25 00:06:58;;;;;;;8.88;5.97;;;6.90;91.20;;;;;;5069111;28;20045;-55
2021/11/25 00:09:25;;;;;;;10.48;6.13;;;6.90;91.20;;;;;;5068778;28;20079;-54
2021/11/25 00:11:51;;;;;;;10.15;6.20;;;6.90;91.20;;;;;;5068875;28;20052;-54
2021/11/25 00:14:18;;;;;;;12.73;7.65;;;6.90;91.20;;;;;;5068499;28;20052;-56
2021/11/25 00:16:46;;;;;;;12.75;7.45;;;6.90;91.20;;;;;;5068741;28;20049;-57
2021/11/25 00:19:13;;;;;;;9.65;6.03;;;6.90;91.10;;;;;;5068804;28;20051;-58
2021/11/25 00:21:40;;;;;;;11.93;5.97;;;6.90;91.20;;;;;;5068429;28;20048;-57
2021/11/25 00:24:07;;;;;;;10.30;5.97;;;6.90;91.10;;;;;;5068296;28;20132;-56
2021/11/25 00:26:34;;;;;;;11.35;6.18;;;6.90;91.20;;;;;;5066520;28;20052;-58
2021/11/25 00:29:01;;;;;;;8.75;6.05;;;6.90;91.10;;;;;;5066863;28;20078;-56
2021/11/25 00:31:28;;;;;;;7.90;5.18;;;6.90;91.00;;;;;;5068986;28;20174;-58
2021/11/25 00:33:55;;;;;;;9.85;6.13;;;6.90;91.00;;;;;;5068106;28;20066;-56
2021/11/25 00:36:22;;;;;;;11.23;5.90;;;6.90;90.90;;;;;;5067237;28;20084;-57
2021/11/25 00:38:48;;;;;;;10.30;5.47;;;6.90;91.00;;;;;;5068261;28;20049;-55
2021/11/25 00:41:16;;;;;;;9.15;5.97;;;6.80;91.30;;;;;;5068461;28;20048;-54
2021/11/25 00:43:43;;;;;;;9.45;5.40;;;6.80;90.90;;;;;;5067993;28;20052;-56
2021/11/25 00:46:09;;;;;;;8.80;5.55;;;6.80;91.00;;;;;;5066629;28;20040;-53
2021/11/25 00:48:37;;;;;;;9.02;5.68;;;6.80;91.00;;;;;;5068617;28;20044;-55
2021/11/25 00:51:04;;;;;;;9.80;5.85;;;6.80;91.10;;;;;;5068736;28;20056;-56
2021/11/25 00:53:31;;;;;;;8.38;5.63;;;6.80;91.10;;;;;;5068609;28;20045;-54
2021/11/25 00:55:58;;;;;;;8.27;5.30;;;6.80;90.90;;;;;;5068382;28;20553;-56
2021/11/25 00:58:25;;;;;;;8.93;6.00;;;6.80;91.10;;;;;;5068954;28;20049;-57
2021/11/25 01:00:51;;;;;;;9.68;5.97;;;6.80;91.00;;;;;;5053272;28;20049;-56
2021/11/25 01:03:19;;;;;;;8.77;5.65;;;6.80;91.00;;;;;;5072393;28;20052;-56
2021/11/25 01:05:46;;;;;;;11.15;5.75;;;6.80;91.00;;;;;;5070809;28;20557;-55
2021/11/25 01:08:14;;;;;;;9.13;5.72;;;6.80;91.00;;;;;;5071011;28;20056;-54
2021/11/25 01:10:42;;;;;;;9.30;5.80;;;6.80;90.90;;;;;;5070760;28;20036;-55
2021/11/25 01:13:09;;;;;;;8.30;4.90;;;6.80;91.00;;;;;;5072068;28;20645;-58
2021/11/25 01:15:36;;;;;;;8.52;5.28;;;6.90;91.00;;;;;;5071709;28;20513;-54
2021/11/25 01:18:15;;;;;;;12.35;5.18;;;6.80;91.30;;;;;;5072353;28;20144;-55
2021/11/25 01:20:45;;;;;;;9.45;5.30;;;6.90;91.00;;;;;;5072334;28;20044;-52
2021/11/25 01:23:14;;;;;;;10.07;5.97;;;6.90;91.10;;;;;;5072305;28;20048;-55
2021/11/25 01:25:40;;;;;;;8.48;4.88;;;6.80;91.10;;;;;;5071411;28;20101;-56
2021/11/25 01:28:12;;;;;;;8.80;4.90;;;6.90;91.10;;;;;;5070769;28;20136;-57
2021/11/25 01:30:43;;;;;;;9.38;5.35;;;6.90;91.10;;;;;;5070608;28;20048;-54
2021/11/25 01:33:10;;;;;;;10.10;6.32;;;6.90;91.00;;;;;;5071693;28;20049;-55
2021/11/25 01:35:38;;;;;;;10.60;6.28;;;6.90;91.10;;;;;;5071276;28;20048;-55
2021/11/25 01:38:06;;;;;;;8.48;5.63;;;6.80;90.90;;;;;;5071693;28;20870;-56
2021/11/25 01:40:34;;;;;;;9.23;5.68;;;6.80;91.10;;;;;;5071504;28;20098;-55
2021/11/25 01:43:01;;;;;;;11.38;5.47;;;6.80;91.20;;;;;;5071179;28;20475;-56
2021/11/25 01:45:28;;;;;;;9.38;5.82;;;6.80;91.10;;;;;;5069994;28;20419;-55
2021/11/25 01:47:56;;;;;;;8.48;5.55;;;6.90;91.20;;;;;;5053171;28;20056;-57
2021/11/25 01:50:25;;;;;;;11.98;6.07;;;6.80;91.00;;;;;;5053719;28;20048;-55
2021/11/25 01:52:52;;;;;;;13.68;5.13;;;6.80;91.00;;;;;;5070389;28;20052;-57
2021/11/25 01:55:19;;;;;;;10.13;6.05;;;6.90;91.10;;;;;;4718943;28;10000570;-57
2021/11/25 01:57:49;;;;;;;11.48;6.35;;;6.80;91.20;;;;;;5067096;28;20135;-56
2021/11/25 02:00:36;;;;;;;11.20;5.78;;;6.80;91.30;;;;;;5069392;28;20045;-55
2021/11/25 02:03:03;;;;;;;10.32;6.47;;;6.90;91.00;;;;;;5070554;28;20411;-56
2021/11/25 02:05:30;;;;;;;8.95;5.70;;;6.80;91.20;;;;;;5070696;28;20056;-55
2021/11/25 02:07:57;;;;;;;10.05;5.72;;;6.80;91.20;;;;;;5069519;28;20072;-55
2021/11/25 02:10:24;;;;;;;11.65;5.95;;;6.80;91.60;;;;;;5070520;28;20087;-56
2021/11/25 02:12:51;;;;;;;7.45;5.07;;;6.80;91.20;;;;;;5069227;28;20040;-54
2021/11/25 02:15:18;;;;;;;8.52;5.18;;;6.80;91.30;;;;;;5070547;28;20492;-55
2021/11/25 02:17:45;;;;;;;7.88;5.03;;;6.80;91.30;;;;;;5069075;28;20044;-57
2021/11/25 02:20:12;;;;;;;10.23;5.80;;;6.80;91.30;;;;;;5070731;28;20045;-56
2021/11/25 02:22:39;;;;;;;10.75;6.82;;;6.90;91.50;;;;;;5068919;28;20048;-57
2021/11/25 02:25:08;;;;;;;10.32;6.38;;;6.80;91.40;;;;;;5070468;28;20044;-56
2021/11/25 02:27:35;;;;;;;10.27;6.15;;;6.80;91.40;;;;;;5069113;28;20053;-57
2021/11/25 02:30:04;;;;;;;9.40;5.10;;;6.70;91.40;;;;;;5069102;28;20083;-58
2021/11/25 02:32:36;;;;;;;11.35;6.28;;;6.70;91.60;;;;;;5070411;28;20045;-55
2021/11/25 02:35:03;;;;;;;12.02;7.38;;;6.80;91.70;;;;;;5068998;28;20083;-57
2021/11/25 02:37:30;;;;;;;11.52;6.82;;;6.70;91.80;;;;;;5069910;28;20088;-56
2021/11/25 02:39:57;;;;;;;15.32;9.20;;;6.70;91.80;;;;;;5069894;28;20557;-56
2021/11/25 02:42:24;;;;;;;13.48;7.80;;;6.80;92.20;;;;;;5070230;28;20056;-55
2021/11/25 02:44:51;;;;;;;12.25;7.32;;;6.70;92.00;;;;;;5070059;28;20122;-56
2021/11/25 02:47:17;;;;;;;15.20;7.35;;;6.80;92.20;;;;;;5070206;28;20060;-56
2021/11/25 02:49:44;;;;;;;20.48;7.72;;;6.70;92.00;;;;;;5069956;28;20048;-56
2021/11/25 02:52:11;;;;;;;13.82;8.23;;;6.60;92.10;;;;;;5068914;28;20048;-56
2021/11/25 02:54:43;;;;;;;16.45;9.90;;;6.70;92.40;;;;;;5070454;28;20056;-56
2021/11/25 02:57:09;;;;;;;18.83;8.95;;;6.70;92.60;;;;;;5069738;28;20052;-55
2021/11/25 02:59:36;;;;;;;17.50;9.98;;;6.70;92.70;;;;;;5070443;28;20049;-57
2021/11/25 03:02:03;;;;;;;17.55;9.88;;;6.70;92.90;;;;;;5070005;28;20053;-59
2021/11/25 03:04:30;;;;;;;17.27;10.18;;;6.70;93.00;;;;;;5069933;28;20040;-61
2021/11/25 03:06:57;;;;;;;20.08;10.90;;;6.70;93.40;;;;;;5068938;28;20489;-54
2021/11/25 03:09:24;;;;;;;20.25;11.68;;;6.70;93.50;;;;;;5068578;28;20518;-55
2021/11/25 03:11:53;;;;;;;20.67;12.25;;;6.70;93.60;;;;;;5069697;28;20056;-56
2021/11/25 03:14:20;;;;;;;24.02;13.27;;;6.70;94.10;;;;;;5069127;28;20561;-56
2021/11/25 03:16:47;;;;;;;31.75;14.38;;;6.60;93.80;;;;;;5068388;28;20060;-57
2021/11/25 03:19:14;;;;;;;23.45;14.63;;;6.60;93.90;;;;;;5068179;28;20098;-58
2021/11/25 03:21:41;;;;;;;25.75;13.80;;;6.70;94.00;;;;;;5068799;28;20110;-57
2021/11/25 03:24:08;;;;;;;30.02;14.85;;;6.70;94.40;;;;;;5068863;28;20044;-55
2021/11/25 03:26:34;;;;;;;24.85;14.07;;;6.60;94.30;;;;;;5069239;28;20049;-56
2021/11/25 03:29:01;;;;;;;26.60;13.88;;;6.70;94.30;;;;;;5067864;28;20048;-55
2021/11/25 03:31:30;;;;;;;24.17;14.85;;;6.70;94.60;;;;;;5067673;28;20098;-58
2021/11/25 03:33:57;;;;;;;23.48;14.02;;;6.90;94.40;;;;;;5069801;28;20091;-56
2021/11/25 03:36:24;;;;;;;22.75;12.95;;;6.60;94.60;;;;;;5067578;28;20109;-56
2021/11/25 03:38:52;;;;;;;23.15;13.10;;;6.70;94.50;;;;;;5068993;28;20049;-59
2021/11/25 03:41:19;;;;;;;19.60;12.18;;;6.70;94.60;;;;;;5068529;28;20052;-56
2021/11/25 03:43:46;;;;;;;25.52;12.98;;;6.70;94.80;;;;;;5067600;28;20458;-57
2021/11/25 03:46:12;;;;;;;24.05;13.25;;;6.70;94.60;;;;;;5068167;28;20064;-54
2021/11/25 03:48:39;;;;;;;23.92;13.25;;;6.70;94.60;;;;;;5068969;28;20048;-56
2021/11/25 03:51:08;;;;;;;20.90;13.27;;;6.70;94.50;;;;;;5067269;28;20076;-53
2021/11/25 03:53:36;;;;;;;25.58;12.75;;;6.70;94.50;;;;;;5068702;28;20141;-56
2021/11/25 03:56:03;;;;;;;23.08;13.80;;;6.70;94.50;;;;;;5067126;28;20089;-59
2021/11/25 03:58:30;;;;;;;29.92;13.55;;;6.80;94.50;;;;;;5067089;28;20098;-58
2021/11/25 04:00:57;;;;;;;22.38;12.57;;;6.80;94.40;;;;;;5068389;28;20045;-57
2021/11/25 04:03:24;;;;;;;23.83;13.88;;;6.80;94.40;;;;;;5068360;28;20079;-57
2021/11/25 04:05:51;;;;;;;26.20;14.02;;;6.80;94.50;;;;;;5068278;28;20040;-56
2021/11/25 04:08:19;;;;;;;26.25;14.50;;;6.80;94.50;;;;;;5068353;28;20122;-55
2021/11/25 04:10:46;;;;;;;25.23;11.88;;;6.80;94.50;;;;;;5068511;28;20098;-58
2021/11/25 04:13:12;;;;;;;25.77;12.13;;;6.80;94.40;;;;;;5068776;28;20044;-56
2021/11/25 04:15:39;;;;;;;22.90;12.43;;;6.80;94.40;;;;;;5068157;28;20131;-55
2021/11/25 04:18:06;;;;;;;23.35;13.07;;;6.80;94.40;;;;;;5067929;28;20087;-56
2021/11/25 04:20:34;;;;;;;25.90;11.57;;;6.90;94.60;;;;;;5066934;28;20044;-55
2021/11/25 04:23:01;;;;;;;21.50;12.82;;;6.90;94.30;;;;;;5066324;28;20055;-57
2021/11/25 04:25:28;;;;;;;25.77;11.77;;;6.90;94.20;;;;;;5067610;28;20080;-54
2021/11/25 04:27:55;;;;;;;20.40;11.38;;;6.80;94.10;;;;;;5069305;28;20052;-57
2021/11/25 04:35:35;;;;;;;19.55;11.40;;;6.80;94.00;;;;;;5067213;28;20048;-55
2021/11/25 04:38:10;;;;;;;21.40;10.35;;;6.80;93.90;;;;;;5066916;28;20059;-54
2021/11/25 04:40:43;;;;;;;18.48;10.43;;;6.80;93.80;;;;;;5068503;28;20470;-58
2021/11/25 04:43:11;;;;;;;17.98;9.43;;;6.80;94.00;;;;;;5067957;28;20078;-56
2021/11/25 04:45:38;;;;;;;21.45;9.63;;;6.80;93.80;;;;;;5068059;28;20079;-53
2021/11/25 04:48:05;;;;;;;19.30;9.35;;;6.80;93.70;;;;;;5067821;28;20139;-56
2021/11/25 04:50:32;;;;;;;18.80;8.57;;;6.80;93.60;;;;;;5068081;28;20496;-54
2021/11/25 04:52:59;;;;;;;16.63;9.18;;;6.80;93.40;;;;;;5067529;28;20534;-56
2021/11/25 04:55:26;;;;;;;19.85;8.63;;;6.70;93.40;;;;;;5067962;28;20048;-56
2021/11/25 04:57:53;;;;;;;24.92;10.93;;;6.70;93.40;;;;;;5066228;28;20048;-54
2021/11/25 05:00:20;;;;;;;13.95;8.15;;;6.80;93.30;;;;;;5066805;28;20049;-59
2021/11/25 05:02:47;;;;;;;19.50;7.35;;;6.70;93.10;;;;;;5050044;28;20125;-56
2021/11/25 05:05:14;;;;;;;18.85;8.40;;;6.70;93.00;;;;;;5068160;28;20111;-57
2021/11/25 05:07:41;;;;;;;16.40;7.55;;;6.70;93.10;;;;;;5066472;28;20053;-57
2021/11/25 05:10:09;;;;;;;12.10;6.35;;;6.70;92.90;;;;;;5067805;28;20052;-56
2021/11/25 05:12:37;;;;;;;14.00;5.25;;;6.70;92.50;;;;;;5067737;28;20491;-55
2021/11/25 05:15:11;;;;;;;17.23;5.47;;;6.70;92.40;;;;;;5066799;28;20048;-58
2021/11/25 05:17:38;;;;;;;10.07;5.70;;;6.60;92.10;;;;;;5067943;28;20040;-59
2021/11/25 05:20:06;;;;;;;11.63;5.13;;;6.60;92.40;;;;;;5066374;28;20094;-59
2021/11/25 05:22:33;;;;;;;12.82;5.45;;;6.60;92.40;;;;;;5068010;28;20431;-57
2021/11/25 05:25:00;;;;;;;9.00;5.30;;;6.50;92.40;;;;;;5066430;28;20074;-55
2021/11/25 05:27:27;;;;;;;11.30;4.32;;;6.50;92.20;;;;;;5067671;28;20496;-54
2021/11/25 05:29:54;;;;;;;11.98;4.57;;;6.40;92.10;;;;;;5050162;28;20411;-56
2021/11/25 05:32:20;;;;;;;12.32;4.45;;;6.30;92.20;;;;;;5066643;28;20106;-57
2021/11/25 05:34:47;;;;;;;12.32;4.18;;;6.30;92.20;;;;;;5067269;28;20056;-59
2021/11/25 05:37:15;;;;;;;9.80;3.53;;;6.20;92.10;;;;;;5067126;28;20106;-54
2021/11/25 05:39:42;;;;;;;13.02;3.92;;;6.20;91.80;;;;;;5066069;28;20044;-58
2021/11/25 05:42:09;;;;;;;8.57;3.60;;;6.20;91.90;;;;;;5066414;28;20110;-54
2021/11/25 05:44:37;;;;;;;11.32;5.20;;;6.10;91.80;;;;;;5067421;28;20045;-57
2021/11/25 05:47:04;;;;;;;11.10;3.70;;;6.00;91.70;;;;;;5069415;28;20751;-54
2021/11/25 05:49:31;;;;;;;15.80;2.85;;;6.00;91.60;;;;;;5070796;28;20102;-54
2021/11/25 05:51:58;;;;;;;11.70;3.78;;;5.90;91.50;;;;;;5070527;28;20389;-57
2021/11/25 05:54:25;;;;;;;11.20;2.83;;;5.90;91.60;;;;;;5070873;28;20044;-55
2021/11/25 05:56:51;;;;;;;8.80;2.83;;;5.90;91.70;;;;;;5071128;28;20051;-56
2021/11/25 05:59:18;;;;;;;10.15;2.83;;;5.80;91.40;;;;;;5070371;28;20110;-57
2021/11/25 06:01:45;;;;;;;7.07;3.13;;;5.80;91.60;;;;;;5069982;28;20535;-55
2021/11/25 06:04:13;;;;;;;11.27;2.38;;;5.70;91.70;;;;;;5071142;28;20060;-57
2021/11/25 06:06:39;;;;;;;6.28;2.50;;;5.70;91.80;;;;;;5069219;28;20442;-55
2021/11/25 06:09:06;;;;;;;12.68;2.53;;;5.70;91.50;;;;;;5071083;28;20045;-56
2021/11/25 06:11:33;;;;;;;12.00;2.33;;;5.70;91.70;;;;;;5070420;28;20067;-55
2021/11/25 06:14:00;;;;;;;15.15;3.42;;;5.60;91.60;;;;;;5071016;28;20072;-55
2021/11/25 06:16:27;;;;;;;6.78;2.30;;;5.60;91.60;;;;;;5070284;28;20060;-56
2021/11/25 06:18:54;;;;;;;5.25;2.15;;;5.50;91.60;;;;;;5070531;28;20419;-56
2021/11/25 06:21:20;;;;;;;7.82;2.17;;;5.50;91.80;;;;;;5070211;28;20083;-60
2021/11/25 06:23:47;;;;;;;9.07;3.33;;;5.50;91.80;;;;;;5070409;28;20110;-57
2021/11/25 06:26:14;;;;;;;6.68;2.28;;;5.50;91.90;;;;;;5070477;28;20116;-56
2021/11/25 06:28:41;;;;;;;7.05;2.00;;;5.40;91.70;;;;;;5070282;28;20131;-56
2021/11/25 06:31:08;;;;;;;9.45;2.55;;;5.30;91.80;;;;;;5070188;28;20059;-56
2021/11/25 06:33:35;;;;;;;4.43;1.48;;;5.30;91.90;;;;;;5070575;28;20056;-56
2021/11/25 06:36:02;;;;;;;6.30;2.13;;;5.30;91.70;;;;;;5069891;28;20139;-55
2021/11/25 06:38:29;;;;;;;7.88;1.63;;;5.30;91.60;;;;;;5068497;28;20082;-57
2021/11/25 06:40:56;;;;;;;14.02;2.30;;;5.30;91.70;;;;;;5069842;28;20036;-53
2021/11/25 06:43:24;;;;;;;20.40;3.53;;;5.30;92.00;;;;;;5070139;28;20457;-55
2021/11/25 06:45:51;;;;;;;7.38;2.25;;;5.20;91.80;;;;;;5069483;28;20076;-56
2021/11/25 06:48:18;;;;;;;8.32;1.52;;;5.20;91.70;;;;;;5069791;28;20106;-54
2021/11/25 06:50:45;;;;;;;7.55;1.88;;;5.20;91.70;;;;;;5051749;28;20052;-56
2021/11/25 06:53:12;;;;;;;9.77;2.33;;;5.10;91.40;;;;;;5068622;28;20446;-53
2021/11/25 06:55:38;;;;;;;6.22;1.55;;;5.10;91.30;;;;;;5068510;28;20053;-53
2021/11/25 06:58:05;;;;;;;7.50;1.83;;;5.20;91.40;;;;;;5067746;28;20113;-56
2021/11/25 07:00:32;;;;;;;4.88;1.52;;;5.00;91.40;;;;;;5069476;28;20044;-55
2021/11/25 07:02:59;;;;;;;5.70;1.85;;;5.10;91.30;;;;;;5069519;28;20060;-53
2021/11/25 07:05:26;;;;;;;5.90;2.00;;;5.00;91.20;;;;;;5069817;28;20053;-55
2021/11/25 07:07:53;;;;;;;5.70;1.40;;;4.90;91.00;;;;;;5068121;28;20121;-56
2021/11/25 07:10:20;;;;;;;4.03;2.05;;;4.90;91.20;;;;;;5071190;28;20456;-54
2021/11/25 07:12:48;;;;;;;15.07;2.00;;;4.90;91.20;;;;;;5069789;28;20044;-53
2021/11/25 07:15:16;;;;;;;10.50;1.88;;;4.80;91.20;;;;;;5069441;28;20045;-55
2021/11/25 07:17:45;;;;;;;11.10;1.33;;;4.80;91.10;;;;;;5068549;28;20063;-53
2021/11/25 07:20:12;;;;;;;6.57;1.48;;;4.80;91.30;;;;;;5061745;28;20078;-58
2021/11/25 07:22:40;;;;;;;5.05;1.95;;;4.70;91.20;;;;;;5068368;28;20059;-56
2021/11/25 07:25:08;;;;;;;9.20;1.80;;;4.70;91.20;;;;;;5067529;28;20467;-53
2021/11/25 07:27:34;;;;;;;5.47;1.55;;;4.70;91.40;;;;;;5068711;28;20056;-55
2021/11/25 07:30:02;;;;;;;9.65;2.10;;;4.60;91.30;;;;;;5068418;28;20052;-62
2021/11/25 07:32:29;;;;;;;10.43;1.50;;;4.60;91.30;;;;;;5069552;28;20080;-55
2021/11/25 07:34:55;;;;;;;5.80;2.47;;;4.60;91.30;;;;;;5069257;28;20499;-53
2021/11/25 07:37:22;;;;;;;5.88;1.73;;;4.60;91.20;;;;;;5068360;28;20523;-54
2021/11/25 07:39:49;;;;;;;9.93;1.92;;;4.50;91.30;;;;;;5067749;28;20049;-55
2021/11/25 07:42:16;;;;;;;4.47;1.98;;;4.50;91.30;;;;;;5067165;28;20052;-55
2021/11/25 07:44:43;;;;;;;7.40;1.98;;;4.50;91.30;;;;;;5067546;28;20087;-54
2021/11/25 07:47:10;;;;;;;10.47;2.83;;;4.50;91.40;;;;;;4717152;27;10000444;-56
2021/11/25 07:49:38;;;;;;;11.32;3.58;;;4.40;91.30;;;;;;5063506;28;20127;-54
2021/11/25 07:52:06;;;;;;;4.07;1.75;;;4.40;91.30;;;;;;5063345;28;20391;-53
2021/11/25 07:54:33;;;;;;;7.47;1.60;;;4.40;91.30;;;;;;5059299;28;20056;-55
2021/11/25 07:57:01;;;;;;;9.18;1.65;;;4.40;91.20;;;;;;5065313;28;20576;-56
2021/11/25 07:59:28;;;;;;;16.08;2.38;;;4.40;91.40;;;;;;5063455;28;20094;-53
2021/11/25 08:01:56;;;;;;;10.93;2.58;;;4.40;91.70;;;;;;5065555;28;20049;-53
2021/11/25 08:04:23;;;;;;;5.78;1.88;;;4.30;91.40;;;;;;5065502;28;20447;-53
2021/11/25 08:06:51;;;;;;;8.80;1.90;;;4.40;91.20;;;;;;5066267;28;20098;-55
2021/11/25 08:09:17;;;;;;;12.23;1.88;;;4.30;91.30;;;;;;5066727;28;20052;-53
2021/11/25 08:11:44;;;;;;;14.13;2.53;;;4.40;91.30;;;;;;5065590;28;20162;-54
2021/11/25 08:14:11;;;;;;;5.32;2.10;;;4.40;91.20;;;;;;5065479;28;20094;-52
2021/11/25 08:16:38;;;;;;;9.88;1.95;;;4.40;91.00;;;;;;5065487;28;20404;-55
2021/11/25 08:19:06;;;;;;;6.28;1.83;;;4.40;91.20;;;;;;5065200;28;20129;-56
2021/11/25 08:21:33;;;;;;;4.68;1.67;;;4.40;91.00;;;;;;5064990;28;20073;-55
2021/11/25 08:24:00;;;;;;;6.00;1.33;;;4.40;91.10;;;;;;5064852;28;20051;-56
2021/11/25 08:26:28;;;;;;;6.75;2.33;;;4.40;91.30;;;;;;5064744;28;20600;-54
2021/11/25 08:28:54;;;;;;;5.10;2.00;;;4.50;91.20;;;;;;5064393;28;20530;-55
2021/11/25 08:31:21;;;;;;;8.45;1.70;;;4.50;91.00;;;;;;5063527;28;20079;-56
2021/11/25 08:33:48;;;;;;;11.40;2.42;;;4.50;91.10;;;;;;5064744;28;20063;-55
2021/11/25 08:36:15;;;;;;;11.82;2.13;;;4.40;91.20;;;;;;5064352;28;20515;-58
2021/11/25 08:38:42;;;;;;;7.85;1.67;;;4.40;91.00;;;;;;5045200;28;20063;-51
2021/11/25 08:41:09;;;;;;;6.82;1.92;;;4.50;91.40;;;;;;5063343;28;20581;-54
2021/11/25 08:43:36;;;;;;;12.57;2.63;;;4.50;90.80;;;;;;5064688;28;20060;-54
2021/11/25 08:46:03;;;;;;;9.23;1.90;;;4.50;90.90;;;;;;5063965;28;20052;-52
2021/11/25 08:48:30;;;;;;;5.88;2.92;;;4.40;91.10;;;;;;5063860;28;20068;-53
2021/11/25 08:50:57;;;;;;;8.52;1.80;;;4.40;91.10;;;;;;5062694;28;20457;-52
2021/11/25 08:53:24;;;;;;;4.28;1.58;;;4.50;91.20;;;;;;5064129;28;20052;-56
2021/11/25 08:55:51;;;;;;;6.32;1.85;;;4.50;91.30;;;;;;5061295;28;20131;-52
2021/11/25 08:58:18;;;;;;;5.03;2.15;;;4.80;91.00;;;;;;5054523;28;20056;-51
2021/11/25 09:00:50;;;;;;;7.90;1.52;;;4.70;91.00;;;;;;5064452;28;20053;-51
2021/11/25 09:03:17;;;;;;;9.93;1.73;;;4.70;91.00;;;;;;5063739;28;20515;-56
2021/11/25 09:05:44;;;;;;;4.85;1.63;;;4.70;90.80;;;;;;5063475;28;20396;-56
2021/11/25 09:08:11;;;;;;;8.35;1.70;;;4.80;90.70;;;;;;5061575;28;20067;-54
2021/11/25 09:10:38;;;;;;;14.90;2.35;;;4.70;90.60;;;;;;5045272;28;20057;-51
2021/11/25 09:13:05;;;;;;;12.60;2.05;;;4.70;90.60;;;;;;5064195;28;20129;-50
2021/11/25 09:15:38;;;;;;;2.92;1.48;;;4.70;90.20;;;;;;5063740;28;20052;-51
2021/11/25 09:18:06;;;;;;;3.97;1.52;;;4.80;90.70;;;;;;5063334;28;20625;-54
2021/11/25 09:20:34;;;;;;;4.82;1.80;;;4.80;90.50;;;;;;5063426;28;20055;-54
2021/11/25 09:23:02;;;;;;;4.32;1.60;;;4.80;90.60;;;;;;5068042;28;20059;-55
2021/11/25 09:25:29;;;;;;;6.60;2.22;;;4.90;89.90;;;;;;5068469;28;20052;-55
2021/11/25 09:27:56;;;;;;;10.35;1.60;;;4.90;90.30;;;;;;5068256;28;20048;-54
2021/11/25 09:30:23;;;;;;;5.90;1.60;;;4.90;90.40;;;;;;5068280;28;20052;-55
2021/11/25 09:32:50;;;;;;;7.63;1.98;;;5.00;90.50;;;;;;5068044;28;20048;-54
2021/11/25 09:35:18;;;;;;;5.22;1.73;;;5.10;90.30;;;;;;5068009;28;20139;-51
2021/11/25 09:37:46;;;;;;;17.60;1.88;;;5.00;90.20;;;;;;5067642;28;20044;-56
2021/11/25 09:40:22;;;;;;;9.95;1.67;;;5.00;90.10;;;;;;5068429;28;20083;-53
2021/11/25 09:42:54;;;;;;;9.27;1.80;;;5.00;90.20;;;;;;5067779;28;20434;-53
2021/11/25 09:45:22;;;;;;;13.70;3.88;;;5.10;90.10;;;;;;5067611;28;20529;-55
2021/11/25 09:47:57;;;;;;;14.70;4.43;;;5.10;90.00;;;;;;5066718;28;20500;-52
2021/11/25 09:50:26;;;;;;;13.90;1.95;;;5.20;90.00;;;;;;5067591;28;20083;-54
2021/11/25 09:52:54;;;;;;;12.60;1.90;;;5.20;90.00;;;;;;5067619;28;20072;-55
2021/11/25 09:55:21;;;;;;;7.95;1.38;;;5.20;89.90;;;;;;5067870;28;20048;-54
2021/11/25 09:57:50;;;;;;;6.13;2.05;;;5.20;90.00;;;;;;5067167;28;20040;-56
2021/11/25 10:00:17;;;;;;;12.55;2.10;;;5.30;89.50;;;;;;5067541;28;20048;-52
2021/11/25 10:02:44;;;;;;;8.75;1.88;;;5.30;89.40;;;;;;5066609;28;20049;-55
2021/11/25 10:05:11;;;;;;;12.90;1.73;;;5.30;89.90;;;;;;5065411;28;20575;-55
2021/11/25 10:07:40;;;;;;;12.93;1.83;;;5.30;89.40;;;;;;5064589;28;20128;-55
2021/11/25 10:10:20;;;;;;;10.30;2.33;;;5.30;89.40;;;;;;5065894;28;20062;-54
2021/11/25 10:12:47;;;;;;;9.75;1.40;;;5.40;88.10;;;;;;5047604;28;20052;-54
2021/11/25 10:15:33;;;;;;;6.95;1.70;;;5.50;88.80;;;;;;5047518;28;20052;-53
2021/11/25 10:18:05;;;;;;;16.13;1.77;;;5.40;87.20;;;;;;5065467;28;20087;-56
2021/11/25 10:20:37;;;;;;;11.48;1.60;;;5.40;88.90;;;;;;5067037;28;20253;-58
2021/11/25 10:23:04;;;;;;;12.48;1.67;;;5.40;89.40;;;;;;5067197;28;20048;-52
2021/11/25 10:25:57;;;;;;;11.65;3.00;;;5.50;88.80;;;;;;5063192;28;20048;-54
2021/11/25 10:28:29;;;;;;;12.07;1.60;;;5.40;87.30;;;;;;5066896;28;20084;-56
2021/11/25 10:31:00;;;;;;;14.98;2.35;;;5.60;89.10;;;;;;5066694;28;20052;-52
2021/11/25 10:33:33;;;;;;;18.27;4.15;;;5.60;88.80;;;;;;5066317;28;20049;-54
2021/11/25 10:38:39;;;;;;;6.75;1.85;;;5.70;88.50;;;;;;5067031;28;20052;-56
2021/11/25 10:41:17;;;;;;;8.10;2.10;;;5.70;88.90;;;;;;5063834;28;20047;-54
2021/11/25 10:43:44;;;;;;;11.40;1.52;;;5.70;87.80;;;;;;5065497;28;20049;-53
2021/11/25 10:46:11;;;;;;;6.32;1.42;;;5.80;87.80;;;;;;5065456;28;20068;-54
2021/11/25 10:48:41;;;;;;;11.35;1.73;;;5.80;87.80;;;;;;5065797;28;20056;-54
2021/11/25 10:51:29;;;;;;;7.97;1.50;;;5.80;88.00;;;;;;5066516;28;20048;-54
2021/11/25 10:54:10;;;;;;;6.00;1.57;;;5.80;88.50;;;;;;5066278;28;20671;-55
2021/11/25 10:56:50;;;;;;;7.65;2.13;;;5.90;87.90;;;;;;5062466;28;20289;-54
2021/11/25 10:59:19;;;;;;;10.15;1.83;;;6.00;87.90;;;;;;5065950;28;20079;-53
2021/11/25 11:01:48;;;;;;;9.93;1.50;;;6.00;87.70;;;;;;5062822;28;20040;-54
2021/11/25 11:04:17;;;;;;;9.43;2.13;;;6.00;88.00;;;;;;5066004;28;20048;-55
2021/11/25 11:06:52;;;;;;;2.58;1.10;;;6.00;87.80;;;;;;5065157;28;20037;-53
2021/11/25 11:09:40;;;;;;;13.63;2.35;;;6.00;87.70;;;;;;5066216;28;20560;-55
2021/11/25 11:12:44;;;;;;;5.43;1.67;;;6.10;85.50;;;;;;5063105;28;20067;-52
2021/11/25 11:15:27;;;;;;;13.38;1.63;;;6.10;85.40;;;;;;5065952;28;20094;-52
2021/11/25 11:18:42;;;;;;;6.25;1.92;;;6.10;87.00;;;;;;5056571;28;20095;-53
2021/11/25 11:20:50;;;;;;;13.13;4.07;;;6.10;87.60;;;;;;5064992;28;20550;-54
2021/11/25 11:23:21;;;;;;;7.75;2.03;;;6.20;87.30;;;;;;5064658;28;20052;-55
2021/11/25 11:25:49;;;;;;;10.93;1.83;;;6.20;86.30;;;;;;5048609;28;20065;-51
2021/11/25 11:28:16;;;;;;;7.45;1.77;;;6.20;86.50;;;;;;5066142;28;20055;-50
2021/11/25 11:30:44;;;;;;;13.77;1.95;;;6.20;86.30;;;;;;5064457;28;20078;-56
2021/11/25 11:33:14;;;;;;;10.65;2.03;;;6.20;87.00;;;;;;5054797;28;20051;-55
2021/11/25 11:35:41;;;;;;;7.30;2.33;;;6.30;86.10;;;;;;5064155;28;20094;-53
2021/11/25 11:38:13;;;;;;;9.80;1.75;;;6.30;86.40;;;;;;5065733;28;20056;-54
2021/11/25 11:40:40;;;;;;;9.95;1.63;;;6.30;86.60;;;;;;5065432;28;20044;-53
2021/11/25 11:43:07;;;;;;;7.03;1.80;;;6.30;84.70;;;;;;5061409;28;20291;-54
2021/11/25 11:45:34;;;;;;;8.30;2.10;;;6.30;86.60;;;;;;5065543;28;20048;-53
2021/11/25 11:48:03;;;;;;;8.45;1.83;;;6.40;86.00;;;;;;5064933;28;20533;-54
2021/11/25 11:50:48;;;;;;;5.82;1.50;;;6.40;86.30;;;;;;5063869;28;20079;-55
2021/11/25 11:53:17;;;;;;;9.07;1.85;;;6.40;85.00;;;;;;5064871;28;20041;-53
2021/11/25 11:55:47;;;;;;;5.47;1.52;;;6.40;85.60;;;;;;5065455;28;20172;-54
2021/11/25 11:58:22;;;;;;;5.18;1.45;;;6.40;86.10;;;;;;5065252;28;20080;-57
2021/11/25 12:00:50;;;;;;;9.05;2.22;;;6.40;85.60;;;;;;5065542;28;20802;-54
2021/11/25 12:03:40;;;;;;;9.57;1.73;;;6.50;86.00;;;;;;5065409;28;20714;-54
2021/11/25 12:06:08;;;;;;;7.85;2.45;;;6.50;84.90;;;;;;5064376;28;20052;-55
2021/11/25 12:08:35;;;;;;;5.95;1.92;;;6.60;86.00;;;;;;5063920;28;20483;-52
2021/11/25 12:11:05;;;;;;;18.77;1.83;;;6.50;83.00;;;;;;5065354;28;20111;-54
2021/11/25 12:13:40;;;;;;;14.02;1.40;;;6.50;85.40;;;;;;5065286;28;20391;-57
2021/11/25 12:16:16;;;;;;;15.35;3.60;;;6.50;84.60;;;;;;5065319;28;20052;-52
2021/11/25 12:18:54;;;;;;;9.38;2.08;;;6.50;83.80;;;;;;5064459;28;20491;-52
2021/11/25 12:21:46;;;;;;;7.40;1.40;;;6.60;84.90;;;;;;5064926;28;20080;-55
2021/11/25 12:24:45;;;;;;;10.70;1.67;;;6.60;84.00;;;;;;5063909;28;20507;-51
2021/11/25 12:27:19;;;;;;;13.88;1.48;;;6.70;83.20;;;;;;5058151;28;20449;-52
2021/11/25 12:30:00;;;;;;;10.13;1.55;;;6.70;85.40;;;;;;5068823;28;20045;-55
2021/11/25 12:32:47;;;;;;;11.80;1.80;;;6.70;84.30;;;;;;5067181;28;20055;-55
2021/11/25 12:35:14;;;;;;;9.02;1.60;;;6.70;82.50;;;;;;5068173;28;20060;-53
2021/11/25 12:37:47;;;;;;;3.95;1.27;;;6.80;85.30;;;;;;5067851;28;20041;-53
2021/11/25 12:40:37;;;;;;;11.05;2.45;;;6.80;84.40;;;;;;5057543;28;20448;-55
2021/11/25 12:43:11;;;;;;;8.30;2.28;;;6.80;84.80;;;;;;5067661;28;20041;-52
2021/11/25 12:45:45;;;;;;;17.98;3.33;;;6.80;85.10;;;;;;5056759;28;20499;-55
2021/11/25 12:48:15;;;;;;;4.70;1.42;;;6.80;84.20;;;;;;5067129;28;20049;-51
2021/11/25 12:50:54;;;;;;;6.75;1.42;;;6.80;84.80;;;;;;5067490;28;20542;-51
2021/11/25 12:53:27;;;;;;;5.03;1.60;;;6.90;85.00;;;;;;5067933;28;20106;-52
2021/11/25 12:55:57;;;;;;;13.68;1.70;;;6.90;84.90;;;;;;5068456;28;20048;-52
2021/11/25 12:58:41;;;;;;;7.97;1.40;;;6.90;83.60;;;;;;5070781;28;20095;-52
2021/11/25 13:01:12;;;;;;;8.13;1.80;;;6.90;82.40;;;;;;5061157;28;20123;-55
2021/11/25 13:03:39;;;;;;;9.10;1.45;;;6.90;84.30;;;;;;5071980;28;20523;-53
2021/11/25 13:06:06;;;;;;;7.85;1.70;;;6.90;84.20;;;;;;5071910;28;20048;-52
2021/11/25 13:08:39;;;;;;;6.95;1.77;;;7.00;83.40;;;;;;5071516;28;20048;-53